Search for airport 
image banner adimage banner ad
image banner ad

WABB - Biak/Frans Kaisiepo

Located in Biak, Indonesia

ICAO - WABB, IATA - BIK

Data provided by Airmate  

General information

Coordinates: S1°11'31" E136°6'36"
Elevation is 46 feet MSL.
 
Rated:
View ratings: [VIEW]


View others Airports in Papua

Operational data

Open for public use
Current time UTC:
Current local time:
Weather
METAR: WABB 270400Z 26005KT 9999 SCT018 31/26 Q1007 NOSIG
TAF: TAF WABB 262300Z 2700/2806 30006KT 9999 SCT018 BECMG 2710/2712 00000KT
View NOTAMs / SUP AIP / TFR affecting this airport [VIEW]
Communications frequencies: [VIEW]

Runways:

RWY identifierQFULength (ft)Width (ft)SurfaceLDA (ft)
11109°11713148ASP
29289°11713148

Airport contact information

Address: Biak Indonesia

Satellite view of WABB